createdAt,value
2023-03-20T00:00:09.052Z,98538.53
2023-03-20T00:02:36.194Z,98534.19
2023-03-20T00:05:02.896Z,98531.16
2023-03-20T00:07:29.671Z,98540.66
2023-03-20T00:09:57.930Z,98550.09
2023-03-20T00:12:28.585Z,98549.81
2023-03-20T00:14:55.530Z,98546.63
2023-03-20T00:17:22.199Z,98555.66
2023-03-20T00:19:49.167Z,98559.00
2023-03-20T00:22:15.945Z,98549.09
2023-03-20T00:24:42.528Z,98552.19
2023-03-20T00:27:12.692Z,98546.47
2023-03-20T00:29:39.354Z,98541.47
2023-03-20T00:32:13.064Z,98546.75
2023-03-20T00:34:39.684Z,98549.41
2023-03-20T00:37:06.342Z,98546.22
2023-03-20T00:39:32.960Z,98553.56
2023-03-20T00:42:03.931Z,98546.47
2023-03-20T00:44:45.460Z,98548.97
2023-03-20T00:47:17.135Z,98554.91
2023-03-20T00:49:45.818Z,98556.59
2023-03-20T00:52:12.781Z,98559.25
2023-03-20T00:54:39.381Z,98560.19
2023-03-20T00:57:14.012Z,98557.28
2023-03-20T00:59:51.826Z,98559.78
2023-03-20T01:02:18.574Z,98558.94
2023-03-20T01:04:45.202Z,98568.38
2023-03-20T01:07:14.258Z,98562.94
2023-03-20T01:09:41.817Z,98547.56
2023-03-20T01:12:11.061Z,98553.38
2023-03-20T01:14:37.666Z,98560.47
2023-03-20T01:17:04.907Z,98562.31
2023-03-20T01:19:31.565Z,98564.09
2023-03-20T01:21:58.488Z,98558.94
2023-03-20T01:24:25.193Z,98568.69
2023-03-20T01:26:52.780Z,98565.06
2023-03-20T01:29:24.867Z,98550.03
2023-03-20T01:31:52.696Z,98551.31
2023-03-20T01:34:21.273Z,98558.66
2023-03-20T01:36:50.826Z,98549.38
2023-03-20T01:39:19.215Z,98555.78
2023-03-20T01:41:47.279Z,98559.25
2023-03-20T01:44:29.539Z,98562.72
2023-03-20T01:46:58.516Z,98564.22
2023-03-20T01:49:25.464Z,98562.00
2023-03-20T01:51:56.334Z,98561.47
2023-03-20T01:54:26.838Z,98560.72
2023-03-20T01:56:59.274Z,98551.84
2023-03-20T01:59:30.051Z,98561.28
2023-03-20T02:01:56.948Z,98562.81
2023-03-20T02:04:28.271Z,98559.47
2023-03-20T02:07:01.430Z,98570.31
2023-03-20T02:09:37.825Z,98576.44
2023-03-20T02:12:08.999Z,98579.94
2023-03-20T02:14:36.433Z,98584.66
2023-03-20T02:17:13.767Z,98581.72
2023-03-20T02:19:51.310Z,98582.88
2023-03-20T02:22:51.193Z,98579.25
2023-03-20T02:25:42.609Z,98583.94
2023-03-20T02:28:21.805Z,98591.31
2023-03-20T02:31:05.450Z,98594.78
2023-03-20T02:33:36.030Z,98593.66
2023-03-20T02:36:26.074Z,98589.34
2023-03-20T02:39:07.990Z,98589.91
2023-03-20T02:41:40.104Z,98599.25
2023-03-20T02:44:29.962Z,98586.19
2023-03-20T02:47:09.200Z,98588.81
2023-03-20T02:49:37.904Z,98590.50
2023-03-20T02:52:29.579Z,98584.41
2023-03-20T02:55:34.871Z,98587.69
2023-03-20T02:58:13.543Z,98582.59
2023-03-20T03:00:47.576Z,98588.97
2023-03-20T03:03:21.174Z,98589.09
2023-03-20T03:06:08.574Z,98597.72
2023-03-20T03:08:39.827Z,98596.47
2023-03-20T03:11:08.768Z,98597.59
2023-03-20T03:13:53.530Z,98590.78
2023-03-20T03:16:25.266Z,98597.88
2023-03-20T03:19:08.725Z,98601.06
2023-03-20T03:21:37.420Z,98594.56
2023-03-20T03:24:04.496Z,98594.97
2023-03-20T03:26:34.972Z,98602.03
2023-03-20T03:29:07.133Z,98599.53
2023-03-20T03:31:37.363Z,98600.38
2023-03-20T03:34:04.365Z,98604.69
2023-03-20T03:37:02.920Z,98614.25
2023-03-20T03:40:06.479Z,98604.25
2023-03-20T03:42:40.470Z,98617.72
2023-03-20T03:45:14.674Z,98612.88
2023-03-20T03:47:52.229Z,98615.34
2023-03-20T03:50:27.455Z,98622.44
2023-03-20T03:53:00.350Z,98620.78
2023-03-20T03:55:32.678Z,98627.00
2023-03-20T03:58:20.250Z,98626.06
2023-03-20T04:00:50.659Z,98623.00
2023-03-20T04:03:20.355Z,98627.28
2023-03-20T04:05:47.397Z,98629.22
2023-03-20T04:08:14.672Z,98625.38
2023-03-20T04:10:41.536Z,98621.03
2023-03-20T04:13:08.873Z,98627.00
2023-03-20T04:15:35.979Z,98626.59
2023-03-20T04:18:04.842Z,98631.59
2023-03-20T04:20:31.558Z,98634.53
2023-03-20T04:22:58.555Z,98635.22
2023-03-20T04:25:29.025Z,98625.50
2023-03-20T04:27:59.683Z,98627.31
2023-03-20T04:30:38.717Z,98629.94
2023-03-20T04:33:14.303Z,98626.34
2023-03-20T04:36:01.387Z,98623.69
2023-03-20T04:38:28.321Z,98621.75
2023-03-20T04:40:55.429Z,98615.50
2023-03-20T04:43:22.087Z,98615.50
2023-03-20T04:45:48.852Z,98618.41
2023-03-20T04:48:15.499Z,98616.75
2023-03-20T04:50:42.478Z,98619.66
2023-03-20T04:53:09.188Z,98616.34
2023-03-20T04:55:36.091Z,98620.47
2023-03-20T04:58:03.161Z,98623.81
2023-03-20T05:00:30.091Z,98628.97
2023-03-20T05:02:56.787Z,98632.69
2023-03-20T05:05:23.835Z,98633.66
2023-03-20T05:07:52.035Z,98638.91
2023-03-20T05:10:31.951Z,98636.72
2023-03-20T05:13:04.825Z,98642.25
2023-03-20T05:15:58.007Z,98638.66
2023-03-20T05:18:46.462Z,98650.59
2023-03-20T05:21:27.975Z,98654.22
2023-03-20T05:24:10.350Z,98658.50
2023-03-20T05:26:48.722Z,98657.81
2023-03-20T05:29:31.176Z,98658.63
2023-03-20T05:32:14.983Z,98655.06
2023-03-20T05:35:09.203Z,98657.28
2023-03-20T05:37:47.249Z,98656.19
2023-03-20T05:40:25.431Z,98652.44
2023-03-20T05:43:11.996Z,98653.94
2023-03-20T05:45:57.109Z,98646.72
2023-03-20T05:48:42.510Z,98651.72
2023-03-20T05:51:38.243Z,98656.75
2023-03-20T05:54:15.525Z,98656.59
2023-03-20T05:56:59.266Z,98658.69
2023-03-20T05:59:48.565Z,98661.44
2023-03-20T06:02:36.080Z,98665.63
2023-03-20T06:05:11.922Z,98673.38
2023-03-20T06:07:44.986Z,98672.13
2023-03-20T06:10:14.684Z,98673.81
2023-03-20T06:12:41.938Z,98680.75
2023-03-20T06:15:09.099Z,98676.69
2023-03-20T06:17:40.540Z,98675.31
2023-03-20T06:20:08.403Z,98679.50
2023-03-20T06:22:35.710Z,98683.09
2023-03-20T06:25:02.603Z,98678.66
2023-03-20T06:27:35.016Z,98685.34
2023-03-20T06:30:01.806Z,98688.13
2023-03-20T06:32:32.881Z,98689.25
2023-03-20T06:35:01.897Z,98681.50
2023-03-20T06:37:29.104Z,98678.41
2023-03-20T06:40:04.599Z,98677.03
2023-03-20T06:42:31.961Z,98679.53
2023-03-20T06:44:59.505Z,98671.06
2023-03-20T06:47:42.868Z,98674.00
2023-03-20T06:50:10.476Z,98668.53
2023-03-20T06:52:38.071Z,98668.13
2023-03-20T06:55:19.910Z,98669.94
2023-03-20T06:57:47.464Z,98673.13
2023-03-20T07:00:16.688Z,98672.72
2023-03-20T07:02:43.856Z,98678.28
2023-03-20T07:05:14.108Z,98678.41
2023-03-20T07:07:40.909Z,98685.06
2023-03-20T07:10:08.053Z,98685.59
2023-03-20T07:12:34.899Z,98686.50
2023-03-20T07:15:01.946Z,98682.00
2023-03-20T07:17:29.260Z,98687.94
2023-03-20T07:19:56.857Z,98696.97
2023-03-20T07:22:29.193Z,98699.47
2023-03-20T07:25:11.726Z,98713.84
2023-03-20T07:27:38.553Z,98711.69
2023-03-20T07:30:06.686Z,98718.31
2023-03-20T07:32:33.931Z,98713.63
2023-03-20T07:35:01.728Z,98714.50
2023-03-20T07:37:28.428Z,98719.22
2023-03-20T07:39:59.825Z,98714.63
2023-03-20T07:42:30.335Z,98718.22
2023-03-20T07:44:59.107Z,98709.53
2023-03-20T07:47:26.188Z,98710.63
2023-03-20T07:49:52.872Z,98710.00
2023-03-20T07:52:19.543Z,98706.75
2023-03-20T07:54:46.169Z,98702.53
2023-03-20T07:57:14.128Z,98704.97
2023-03-20T07:59:40.845Z,98701.53
2023-03-20T08:02:07.455Z,98695.03
2023-03-20T08:04:34.084Z,98696.47
2023-03-20T08:07:00.782Z,98703.44
2023-03-20T08:09:27.639Z,98701.03
2023-03-20T08:11:54.255Z,98694.44
2023-03-20T08:14:20.934Z,98707.56
2023-03-20T08:16:50.490Z,98710.72
2023-03-20T08:19:22.222Z,98707.28
2023-03-20T08:21:50.066Z,98707.28
2023-03-20T08:24:16.681Z,98707.88
2023-03-20T08:26:44.392Z,98711.38
2023-03-20T08:29:11.585Z,98708.44
2023-03-20T08:31:38.626Z,98702.59
2023-03-20T08:34:05.212Z,98703.06
2023-03-20T08:36:31.813Z,98711.25
2023-03-20T08:38:58.432Z,98709.41
2023-03-20T08:41:25.461Z,98712.91
2023-03-20T08:43:52.351Z,98706.78
2023-03-20T08:46:19.048Z,98712.75
2023-03-20T08:48:45.874Z,98716.91
2023-03-20T08:51:12.516Z,98708.59
2023-03-20T08:53:39.136Z,98707.81
2023-03-20T08:56:06.807Z,98713.38
2023-03-20T08:58:33.503Z,98706.94
2023-03-20T09:01:05.835Z,98704.84
2023-03-20T09:03:32.526Z,98709.03
2023-03-20T09:05:59.147Z,98711.75
2023-03-20T09:08:25.807Z,98711.47
2023-03-20T09:10:53.575Z,98713.13
2023-03-20T09:13:27.100Z,98711.91
2023-03-20T09:15:55.712Z,98720.56
2023-03-20T09:18:23.366Z,98719.66
2023-03-20T09:20:50.183Z,98714.50
2023-03-20T09:23:17.378Z,98717.50
2023-03-20T09:25:44.080Z,98710.91
2023-03-20T09:28:10.717Z,98718.84
2023-03-20T09:30:37.617Z,98712.91
2023-03-20T09:33:04.551Z,98713.31
2023-03-20T09:35:31.475Z,98712.03
2023-03-20T09:37:58.140Z,98715.88
2023-03-20T09:40:29.229Z,98723.97
2023-03-20T09:43:01.779Z,98725.84
2023-03-20T09:46:06.558Z,98720.63
2023-03-20T09:48:54.272Z,98712.94
2023-03-20T09:51:47.260Z,98724.63
2023-03-20T09:54:26.128Z,98714.44
2023-03-20T09:56:54.188Z,98719.22
2023-03-20T09:59:21.428Z,98715.78
2023-03-20T10:01:54.944Z,98715.75
2023-03-20T10:04:24.364Z,98716.91
2023-03-20T10:06:51.012Z,98724.09
2023-03-20T10:09:17.604Z,98721.84
2023-03-20T10:11:46.957Z,98720.16
2023-03-20T10:14:27.425Z,98717.56
2023-03-20T10:17:18.210Z,98725.72
2023-03-20T10:19:51.840Z,98723.31
2023-03-20T10:22:34.933Z,98718.91
2023-03-20T10:25:15.846Z,98720.19
2023-03-20T10:27:49.753Z,98726.03
2023-03-20T10:30:44.304Z,98719.06
2023-03-20T10:33:27.119Z,98723.50
2023-03-20T10:36:15.718Z,98727.66
2023-03-20T10:39:10.011Z,98726.47
2023-03-20T10:41:38.896Z,98726.25
2023-03-20T10:44:06.971Z,98729.69
2023-03-20T10:46:37.143Z,98726.47
2023-03-20T10:49:08.853Z,98721.53
2023-03-20T10:51:59.650Z,98716.75
2023-03-20T10:54:57.015Z,98720.41
2023-03-20T10:57:26.260Z,98712.53
2023-03-20T10:59:55.028Z,98713.94
2023-03-20T11:02:23.395Z,98705.53
2023-03-20T11:04:50.629Z,98700.84
2023-03-20T11:07:34.348Z,98709.88
2023-03-20T11:10:03.997Z,98701.47
2023-03-20T11:12:35.690Z,98707.47
2023-03-20T11:15:22.036Z,98712.16
2023-03-20T11:17:58.844Z,98710.38
2023-03-20T11:20:26.444Z,98714.03
2023-03-20T11:22:59.388Z,98711.75
2023-03-20T11:25:32.780Z,98722.78
2023-03-20T11:28:30.705Z,98721.00
2023-03-20T11:31:06.991Z,98715.19
2023-03-20T11:33:41.087Z,98719.13
2023-03-20T11:36:12.072Z,98718.00
2023-03-20T11:38:46.057Z,98711.88
2023-03-20T11:41:24.378Z,98709.44
2023-03-20T11:43:51.025Z,98709.56
2023-03-20T11:46:21.300Z,98702.63
2023-03-20T11:48:48.036Z,98711.31
2023-03-20T11:51:19.825Z,98703.66
2023-03-20T11:53:49.548Z,98707.69
2023-03-20T11:56:30.531Z,98700.16
2023-03-20T11:59:03.530Z,98701.41
2023-03-20T12:01:38.917Z,98705.91
2023-03-20T12:04:11.342Z,98701.06
2023-03-20T12:07:06.836Z,98699.31
2023-03-20T12:09:43.645Z,98705.47
2023-03-20T12:12:23.269Z,98705.47
2023-03-20T12:14:49.847Z,98695.34
2023-03-20T12:17:28.108Z,98691.50
2023-03-20T12:19:58.201Z,98688.19
2023-03-20T12:22:31.077Z,98698.31
2023-03-20T12:25:23.552Z,98694.84
2023-03-20T12:27:56.481Z,98681.31
2023-03-20T12:30:31.697Z,98682.81
2023-03-20T12:33:05.012Z,98677.38
2023-03-20T12:35:34.470Z,98674.66
2023-03-20T12:38:01.233Z,98656.63
2023-03-20T12:40:43.719Z,98655.19
2023-03-20T12:43:22.860Z,98651.88
2023-03-20T12:46:22.700Z,98654.75
2023-03-20T12:48:49.219Z,98649.47
2023-03-20T12:51:39.953Z,98651.47
2023-03-20T12:54:28.114Z,98647.13
2023-03-20T12:57:03.241Z,98650.25
2023-03-20T12:59:44.800Z,98648.88
2023-03-20T13:02:16.767Z,98637.81
2023-03-20T13:05:38.689Z,98640.97
2023-03-20T13:08:23.584Z,98641.22
2023-03-20T13:10:55.358Z,98638.44
2023-03-20T13:13:33.965Z,98631.13
2023-03-20T13:16:12.704Z,98635.97
2023-03-20T13:18:53.876Z,98632.72
2023-03-20T13:21:28.165Z,98636.59
2023-03-20T13:24:14.785Z,98630.16
2023-03-20T13:27:13.020Z,98634.97
2023-03-20T13:29:46.041Z,98624.09
2023-03-20T13:32:24.480Z,98624.81
2023-03-20T13:35:15.744Z,98614.19
2023-03-20T13:37:46.372Z,98610.38
2023-03-20T13:40:22.752Z,98608.25
2023-03-20T13:43:28.638Z,98611.16
2023-03-20T13:46:04.890Z,98604.53
2023-03-20T13:48:37.340Z,98603.75
2023-03-20T13:51:07.282Z,98601.16
2023-03-20T13:54:03.183Z,98596.50
2023-03-20T13:56:42.879Z,98598.59
2023-03-20T13:59:31.315Z,98588.31
2023-03-20T14:02:17.991Z,98590.72
2023-03-20T14:04:44.888Z,98588.69
2023-03-20T14:07:33.925Z,98589.34
2023-03-20T14:10:22.243Z,98584.06
2023-03-20T14:13:20.554Z,98583.09
2023-03-20T14:15:53.078Z,98577.09
2023-03-20T14:18:22.151Z,98590.44
2023-03-20T14:20:57.489Z,98586.69
2023-03-20T14:23:32.320Z,98586.84
2023-03-20T14:25:59.719Z,98582.69
2023-03-20T14:28:30.053Z,98582.69
2023-03-20T14:31:13.085Z,98575.84
2023-03-20T14:33:44.429Z,98582.00
2023-03-20T14:36:18.507Z,98579.84
2023-03-20T14:38:54.680Z,98579.72
2023-03-20T14:41:54.299Z,98587.81
2023-03-20T14:44:59.493Z,98582.34
2023-03-20T14:47:37.426Z,98585.59
2023-03-20T14:50:26.262Z,98577.91
2023-03-20T14:52:58.991Z,98578.53
2023-03-20T14:55:27.837Z,98577.94
2023-03-20T14:57:57.416Z,98574.53
2023-03-20T15:00:30.300Z,98571.34
2023-03-20T15:03:06.765Z,98566.84
2023-03-20T15:05:34.500Z,98568.50
2023-03-20T15:08:25.638Z,98563.13
2023-03-20T15:10:55.891Z,98567.09
2023-03-20T15:13:24.741Z,98559.31
2023-03-20T15:16:07.044Z,98561.69
2023-03-20T15:18:37.645Z,98556.38
2023-03-20T15:21:04.618Z,98550.78
2023-03-20T15:23:31.346Z,98547.50
2023-03-20T15:26:00.501Z,98553.19
2023-03-20T15:28:27.649Z,98551.19
2023-03-20T15:30:57.993Z,98558.66
2023-03-20T15:33:29.012Z,98556.66
2023-03-20T15:35:56.317Z,98562.47
2023-03-20T15:38:30.480Z,98562.13
2023-03-20T15:40:57.896Z,98569.28
2023-03-20T15:43:26.315Z,98569.13
2023-03-20T15:46:14.156Z,98567.75
2023-03-20T15:48:48.139Z,98570.75
2023-03-20T15:51:14.860Z,98568.44
2023-03-20T15:53:46.561Z,98560.28
2023-03-20T15:56:18.769Z,98576.75
2023-03-20T15:58:48.020Z,98568.13
2023-03-20T16:01:20.235Z,98572.28
2023-03-20T16:03:47.746Z,98569.78
2023-03-20T16:06:18.711Z,98572.63
2023-03-20T16:08:47.005Z,98571.09
2023-03-20T16:11:16.780Z,98568.47
2023-03-20T16:13:48.507Z,98567.94
2023-03-20T16:16:22.101Z,98564.94
2023-03-20T16:18:50.841Z,98565.63
2023-03-20T16:21:28.697Z,98560.81
2023-03-20T16:23:57.507Z,98562.09
2023-03-20T16:26:25.820Z,98567.94
2023-03-20T16:28:58.618Z,98553.50
2023-03-20T16:31:36.363Z,98567.13
2023-03-20T16:34:08.288Z,98565.63
2023-03-20T16:36:37.554Z,98559.31
2023-03-20T16:39:07.827Z,98551.34
2023-03-20T16:41:36.864Z,98554.47
2023-03-20T16:44:19.592Z,98548.19
2023-03-20T16:47:01.837Z,98562.44
2023-03-20T16:49:34.781Z,98553.16
2023-03-20T16:52:05.297Z,98552.94
2023-03-20T16:54:35.287Z,98559.38
2023-03-20T16:57:06.098Z,98550.22
2023-03-20T16:59:32.730Z,98550.84
2023-03-20T17:02:00.336Z,98552.34
2023-03-20T17:04:37.160Z,98550.75
2023-03-20T17:07:18.540Z,98551.22
2023-03-20T17:10:00.538Z,98542.91
2023-03-20T17:12:31.387Z,98552.47
2023-03-20T17:14:58.033Z,98548.47
2023-03-20T17:17:26.065Z,98556.56
2023-03-20T17:19:53.299Z,98550.25
2023-03-20T17:22:25.351Z,98563.94
2023-03-20T17:24:52.617Z,98566.00
2023-03-20T17:27:20.282Z,98552.16
2023-03-20T17:29:47.523Z,98557.97
2023-03-20T17:32:16.875Z,98554.38
2023-03-20T17:34:43.841Z,98566.66
2023-03-20T17:37:16.675Z,98565.78
2023-03-20T17:39:43.422Z,98566.25
2023-03-20T17:42:18.564Z,98568.59
2023-03-20T17:44:45.646Z,98571.94
2023-03-20T17:47:16.449Z,98568.72
2023-03-20T17:49:44.066Z,98572.06
2023-03-20T17:52:19.069Z,98575.09
2023-03-20T17:54:46.668Z,98578.31
2023-03-20T17:57:21.267Z,98585.25
2023-03-20T17:59:49.922Z,98584.94
2023-03-20T18:02:18.382Z,98593.25
2023-03-20T18:04:46.263Z,98588.41
2023-03-20T18:07:13.780Z,98590.38
2023-03-20T18:09:41.400Z,98593.13
2023-03-20T18:12:15.753Z,98599.78
2023-03-20T18:14:42.973Z,98598.69
2023-03-20T18:17:12.342Z,98607.59
2023-03-20T18:19:39.281Z,98604.66
2023-03-20T18:22:06.965Z,98605.34
2023-03-20T18:24:33.612Z,98603.53
2023-03-20T18:27:00.610Z,98612.16
2023-03-20T18:29:27.323Z,98613.97
2023-03-20T18:31:54.004Z,98619.09
2023-03-20T18:34:21.367Z,98611.16
2023-03-20T18:36:48.059Z,98612.69
2023-03-20T18:39:19.986Z,98614.38
2023-03-20T18:41:46.614Z,98609.75
2023-03-20T18:44:13.662Z,98615.91
2023-03-20T18:46:40.821Z,98614.22
2023-03-20T18:49:07.682Z,98608.09
2023-03-20T18:51:34.362Z,98607.78
2023-03-20T18:54:01.015Z,98608.78
2023-03-20T18:56:28.491Z,98604.75
2023-03-20T18:58:55.234Z,98608.53
2023-03-20T19:01:22.296Z,98608.78
2023-03-20T19:03:49.647Z,98609.91
2023-03-20T19:06:21.207Z,98611.03
2023-03-20T19:08:48.485Z,98608.41
2023-03-20T19:11:17.821Z,98613.81
2023-03-20T19:13:49.297Z,98611.78
2023-03-20T19:16:32.303Z,98606.78
2023-03-20T19:19:01.502Z,98611.38
2023-03-20T19:21:29.521Z,98604.16
2023-03-20T19:23:58.179Z,98601.50
2023-03-20T19:26:26.051Z,98597.56
2023-03-20T19:28:54.038Z,98606.63
2023-03-20T19:31:22.151Z,98610.13
2023-03-20T19:33:49.461Z,98608.59
2023-03-20T19:36:19.179Z,98607.38
2023-03-20T19:38:45.916Z,98602.09
2023-03-20T19:41:14.756Z,98604.97
2023-03-20T19:43:52.047Z,98608.72
2023-03-20T19:46:38.102Z,98609.56
2023-03-20T19:49:06.723Z,98602.63
2023-03-20T19:51:33.577Z,98611.38
2023-03-20T19:54:00.277Z,98606.09
2023-03-20T19:56:27.165Z,98604.16
2023-03-20T19:58:54.734Z,98597.38
2023-03-20T20:01:25.813Z,98598.88
2023-03-20T20:03:57.480Z,98599.56
2023-03-20T20:06:30.935Z,98593.16
2023-03-20T20:08:58.802Z,98595.13
2023-03-20T20:11:25.461Z,98586.88
2023-03-20T20:14:09.402Z,98586.59
2023-03-20T20:16:39.706Z,98580.56
2023-03-20T20:19:06.813Z,98583.69
2023-03-20T20:24:20.436Z,98589.19
2023-03-20T20:26:55.217Z,98584.59
2023-03-20T20:29:26.887Z,98587.84
2023-03-20T20:31:53.633Z,98592.88
2023-03-20T20:39:54.440Z,98588.34
2023-03-20T20:42:21.585Z,98591.88
2023-03-20T20:44:48.487Z,98593.00
2023-03-20T20:47:15.933Z,98588.69
2023-03-20T20:49:42.721Z,98588.31
2023-03-20T20:52:10.082Z,98590.78
2023-03-20T20:54:36.782Z,98601.34
2023-03-20T20:57:03.718Z,98600.22
2023-03-20T20:59:30.382Z,98600.22
2023-03-20T21:01:57.057Z,98603.28
2023-03-20T21:04:23.989Z,98604.38
2023-03-20T21:07:10.253Z,98602.44
2023-03-20T21:09:37.500Z,98607.59
2023-03-20T21:12:04.761Z,98607.84
2023-03-20T21:14:31.742Z,98611.41
2023-03-20T21:17:01.390Z,98616.44
2023-03-20T21:19:35.672Z,98603.47
2023-03-20T21:22:02.249Z,98605.16
2023-03-20T21:24:32.741Z,98598.94
2023-03-20T21:27:00.533Z,98603.06
2023-03-20T21:29:27.239Z,98599.75
2023-03-20T21:31:53.939Z,98592.44
2023-03-20T21:34:20.874Z,98595.97
2023-03-20T21:36:49.287Z,98597.63
2023-03-20T21:39:16.541Z,98593.63
2023-03-20T21:41:43.303Z,98600.06
2023-03-20T21:44:16.670Z,98591.28
2023-03-20T21:56:17.118Z,98590.66
2023-03-20T21:58:33.157Z,98585.56
2023-03-20T22:04:03.478Z,98588.63
2023-03-20T22:07:13.088Z,98589.84
2023-03-20T22:23:38.491Z,98612.09
2023-03-20T22:26:38.076Z,98593.50
2023-03-20T22:31:55.136Z,98605.00
2023-03-20T22:40:22.895Z,98597.94
2023-03-20T22:42:51.468Z,98593.31
2023-03-20T22:45:12.879Z,98594.31
2023-03-20T22:47:39.807Z,98590.84
2023-03-20T22:50:07.113Z,98590.84
2023-03-20T22:52:49.947Z,98587.22
2023-03-20T22:55:17.418Z,98583.63
2023-03-20T22:57:56.033Z,98584.56
2023-03-20T23:00:31.079Z,98583.75
2023-03-20T23:03:12.913Z,98579.28
2023-03-20T23:05:42.887Z,98585.16
2023-03-20T23:08:11.204Z,98584.84
2023-03-20T23:10:42.758Z,98572.78
2023-03-20T23:13:09.438Z,98574.41
2023-03-20T23:15:36.153Z,98578.59
2023-03-20T23:18:03.437Z,98560.91
2023-03-20T23:20:30.101Z,98563.44
2023-03-20T23:22:56.713Z,98569.69
2023-03-20T23:25:36.386Z,98572.34
2023-03-20T23:28:06.173Z,98574.41
2023-03-20T23:30:41.967Z,98575.41
2023-03-20T23:33:11.865Z,98567.09
2023-03-20T23:35:38.487Z,98570.97
2023-03-20T23:38:05.426Z,98562.50
2023-03-20T23:40:32.315Z,98562.66
2023-03-20T23:42:58.947Z,98563.63
2023-03-20T23:45:25.564Z,98563.75
2023-03-20T23:47:52.398Z,98564.75
2023-03-20T23:50:30.121Z,98560.59
2023-03-20T23:53:17.153Z,98560.59
2023-03-20T23:55:47.084Z,98555.31
2023-03-20T23:58:14.428Z,98557.25
